createdAt,value
2022-10-06T00:01:18.227Z,100589.00
2022-10-06T00:03:47.724Z,100586.00
2022-10-06T00:06:18.693Z,100570.00
2022-10-06T00:08:49.512Z,100579.00
2022-10-06T00:11:18.547Z,100569.00
2022-10-06T00:13:47.716Z,100574.00
2022-10-06T00:16:21.814Z,100569.00
2022-10-06T00:18:50.610Z,100581.00
2022-10-06T00:21:19.557Z,100571.00
2022-10-06T00:23:49.581Z,100581.00
2022-10-06T00:26:18.230Z,100572.00
2022-10-06T00:28:49.170Z,100573.00
2022-10-06T00:31:19.625Z,100577.00
2022-10-06T00:33:50.819Z,100577.00
2022-10-06T00:36:19.755Z,100570.00
2022-10-06T00:38:51.294Z,100566.00
2022-10-06T00:41:20.116Z,100563.00
2022-10-06T00:43:53.016Z,100560.00
2022-10-06T00:46:29.543Z,100560.00
2022-10-06T00:49:07.602Z,100562.00
2022-10-06T00:51:39.681Z,100555.00
2022-10-06T00:54:11.514Z,100559.00
2022-10-06T00:56:41.199Z,100561.00
2022-10-06T00:59:13.896Z,100571.00
2022-10-06T01:01:47.920Z,100565.00
2022-10-06T01:04:18.743Z,100562.00
2022-10-06T01:06:53.063Z,100553.00
2022-10-06T01:09:25.395Z,100554.00
2022-10-06T01:11:57.261Z,100549.00
2022-10-06T01:14:26.714Z,100544.00
2022-10-06T01:17:01.925Z,100542.00
2022-10-06T01:19:47.421Z,100532.00
2022-10-06T01:22:21.401Z,100524.00
2022-10-06T01:24:53.260Z,100527.00
2022-10-06T01:27:26.785Z,100511.00
2022-10-06T01:29:57.204Z,100512.00
2022-10-06T01:32:32.835Z,100504.00
2022-10-06T01:35:01.876Z,100493.00
2022-10-06T01:37:31.930Z,100493.00
2022-10-06T01:40:02.176Z,100491.00
2022-10-06T01:42:33.728Z,100496.00
2022-10-06T01:45:05.616Z,100486.00
2022-10-06T01:47:35.225Z,100489.00
2022-10-06T01:50:06.706Z,100490.00
2022-10-06T01:52:36.771Z,100483.00
2022-10-06T01:55:08.741Z,100477.00
2022-10-06T01:57:40.867Z,100475.00
2022-10-06T02:00:12.977Z,100465.00
2022-10-06T02:02:42.562Z,100466.00
2022-10-06T02:05:12.064Z,100470.00
2022-10-06T02:07:44.233Z,100470.00
2022-10-06T02:10:17.498Z,100472.00
2022-10-06T02:12:52.691Z,100475.00
2022-10-06T02:15:23.512Z,100472.00
2022-10-06T02:17:53.823Z,100465.00
2022-10-06T02:20:22.736Z,100464.00
2022-10-06T02:22:51.975Z,100466.00
2022-10-06T02:25:22.131Z,100456.00
2022-10-06T02:27:51.013Z,100465.00
2022-10-06T02:30:19.802Z,100465.00
2022-10-06T02:32:49.137Z,100468.00
2022-10-06T02:35:18.291Z,100471.00
2022-10-06T02:37:47.090Z,100466.00
2022-10-06T02:40:19.361Z,100466.00
2022-10-06T02:42:49.326Z,100464.00
2022-10-06T02:45:20.941Z,100467.00
2022-10-06T02:47:49.884Z,100460.00
2022-10-06T02:50:18.787Z,100454.00
2022-10-06T02:52:47.585Z,100457.00
2022-10-06T02:55:16.222Z,100442.00
2022-10-06T02:57:44.894Z,100439.00
2022-10-06T03:00:16.251Z,100438.00
2022-10-06T03:02:49.925Z,100435.00
2022-10-06T03:05:18.751Z,100438.00
2022-10-06T03:07:47.725Z,100427.00
2022-10-06T03:10:16.922Z,100434.00
2022-10-06T03:12:45.914Z,100428.00
2022-10-06T03:15:16.083Z,100416.00
2022-10-06T03:17:44.766Z,100422.00
2022-10-06T03:20:13.477Z,100413.00
2022-10-06T03:22:42.252Z,100424.00
2022-10-06T03:25:11.496Z,100426.00
2022-10-06T03:27:41.395Z,100417.00
2022-10-06T03:30:11.866Z,100421.00
2022-10-06T03:32:42.370Z,100414.00
2022-10-06T03:35:12.223Z,100411.00
2022-10-06T03:37:41.633Z,100414.00
2022-10-06T03:40:11.860Z,100402.00
2022-10-06T03:42:40.715Z,100400.00
2022-10-06T03:45:11.146Z,100391.00
2022-10-06T03:47:41.536Z,100383.00
2022-10-06T03:50:11.416Z,100385.00
2022-10-06T03:52:40.170Z,100381.00
2022-10-06T03:55:10.057Z,100378.00
2022-10-06T03:57:39.437Z,100370.00
2022-10-06T04:00:09.450Z,100373.00
2022-10-06T04:02:42.638Z,100369.00
2022-10-06T04:05:11.982Z,100365.00
2022-10-06T04:07:40.879Z,100353.00
2022-10-06T04:10:11.493Z,100353.00
2022-10-06T04:12:40.515Z,100351.00
2022-10-06T04:15:10.565Z,100348.00
2022-10-06T04:17:39.415Z,100351.00
2022-10-06T04:20:10.085Z,100352.00
2022-10-06T04:22:39.051Z,100357.00
2022-10-06T04:25:09.563Z,100347.00
2022-10-06T04:27:39.459Z,100345.00
2022-10-06T04:30:12.958Z,100338.00
2022-10-06T04:32:42.634Z,100335.00
2022-10-06T04:35:13.215Z,100319.00
2022-10-06T04:37:41.897Z,100318.00
2022-10-06T04:40:11.779Z,100308.00
2022-10-06T04:42:41.415Z,100311.00
2022-10-06T04:45:14.768Z,100299.00
2022-10-06T04:47:44.550Z,100289.00
2022-10-06T04:50:15.826Z,100280.00
2022-10-06T04:53:04.728Z,100292.00
2022-10-06T04:55:36.065Z,100288.00
2022-10-06T04:58:05.619Z,100280.00
2022-10-06T05:00:34.477Z,100293.00
2022-10-06T05:03:03.480Z,100296.00
2022-10-06T05:05:33.929Z,100319.00
2022-10-06T05:08:06.721Z,100326.00
2022-10-06T05:10:35.534Z,100315.00
2022-10-06T05:13:06.146Z,100300.00
2022-10-06T05:15:35.272Z,100300.00
2022-10-06T05:18:04.237Z,100301.00
2022-10-06T05:20:34.368Z,100289.00
2022-10-06T05:23:07.249Z,100292.00
2022-10-06T05:25:36.186Z,100288.00
2022-10-06T05:28:05.024Z,100287.00
2022-10-06T05:30:33.794Z,100274.00
2022-10-06T05:33:03.265Z,100285.00
2022-10-06T05:35:33.357Z,100278.00
2022-10-06T05:38:02.053Z,100275.00
2022-10-06T05:40:30.601Z,100282.00
2022-10-06T05:42:59.642Z,100285.00
2022-10-06T05:45:28.979Z,100286.00
2022-10-06T05:47:57.706Z,100285.00
2022-10-06T05:50:26.820Z,100280.00
2022-10-06T05:52:57.574Z,100271.00
2022-10-06T05:55:26.469Z,100270.00
2022-10-06T05:57:56.541Z,100270.00
2022-10-06T06:00:25.446Z,100273.00
2022-10-06T06:02:54.665Z,100271.00
2022-10-06T06:05:23.429Z,100263.00
2022-10-06T06:07:52.882Z,100268.00
2022-10-06T06:10:23.017Z,100255.00
2022-10-06T06:12:52.083Z,100262.00
2022-10-06T06:16:02.057Z,100264.00
2022-10-06T06:18:33.032Z,100261.00
2022-10-06T06:21:04.865Z,100261.00
2022-10-06T06:23:36.492Z,100253.00
2022-10-06T06:26:10.090Z,100254.00
2022-10-06T06:28:46.306Z,100254.00
2022-10-06T06:31:20.457Z,100254.00
2022-10-06T06:33:54.636Z,100239.00
2022-10-06T06:36:28.881Z,100252.00
2022-10-06T06:38:59.627Z,100242.00
2022-10-06T06:41:34.746Z,100241.00
2022-10-06T06:44:11.624Z,100245.00
2022-10-06T06:46:49.299Z,100237.00
2022-10-06T06:49:39.876Z,100234.00
2022-10-06T06:52:10.869Z,100235.00
2022-10-06T06:54:42.262Z,100226.00
2022-10-06T06:57:16.614Z,100223.00
2022-10-06T06:59:46.459Z,100216.00
2022-10-06T07:02:17.914Z,100214.00
2022-10-06T07:04:48.013Z,100216.00
2022-10-06T07:07:19.582Z,100212.00
2022-10-06T07:09:48.297Z,100202.00
2022-10-06T07:12:20.420Z,100204.00
2022-10-06T07:15:12.020Z,100210.00
2022-10-06T07:18:00.631Z,100199.00
2022-10-06T07:20:48.367Z,100201.00
2022-10-06T07:23:39.543Z,100209.00
2022-10-06T07:26:13.104Z,100204.00
2022-10-06T07:28:43.265Z,100204.00
2022-10-06T07:31:14.014Z,100208.00
2022-10-06T07:33:48.149Z,100201.00
2022-10-06T07:36:17.019Z,100198.00
2022-10-06T07:38:47.411Z,100209.00
2022-10-06T07:41:20.459Z,100200.00
2022-10-06T07:44:02.456Z,100206.00
2022-10-06T07:46:35.215Z,100212.00
2022-10-06T07:49:12.129Z,100212.00
2022-10-06T07:51:41.219Z,100213.00
2022-10-06T07:54:09.892Z,100216.00
2022-10-06T07:56:48.564Z,100207.00
2022-10-06T07:59:21.396Z,100196.00
2022-10-06T08:01:52.611Z,100189.00
2022-10-06T08:04:21.295Z,100186.00
2022-10-06T08:06:50.535Z,100199.00
2022-10-06T08:09:19.999Z,100188.00
2022-10-06T08:11:49.258Z,100186.00
2022-10-06T08:14:20.594Z,100186.00
2022-10-06T08:16:49.349Z,100177.00
2022-10-06T08:19:19.692Z,100174.00
2022-10-06T08:21:48.594Z,100184.00
2022-10-06T08:24:17.326Z,100186.00
2022-10-06T08:26:46.072Z,100176.00
2022-10-06T08:29:14.774Z,100173.00
2022-10-06T08:31:45.246Z,100177.00
2022-10-06T08:34:14.219Z,100180.00
2022-10-06T08:37:02.227Z,100185.00
2022-10-06T08:39:32.638Z,100177.00
2022-10-06T08:42:01.565Z,100181.00
2022-10-06T08:44:35.914Z,100175.00
2022-10-06T08:47:13.566Z,100167.00
2022-10-06T08:49:46.296Z,100167.00
2022-10-06T08:52:41.335Z,100159.00
2022-10-06T08:55:31.728Z,100153.00
2022-10-06T08:58:31.695Z,100153.00
2022-10-06T09:01:17.409Z,100145.00
2022-10-06T09:03:51.577Z,100148.00
2022-10-06T09:06:47.363Z,100137.00
2022-10-06T09:09:34.830Z,100122.00
2022-10-06T09:12:18.353Z,100142.00
2022-10-06T09:14:53.570Z,100133.00
2022-10-06T09:17:29.312Z,100126.00
2022-10-06T09:20:06.323Z,100133.00
2022-10-06T09:22:38.202Z,100130.00
2022-10-06T09:25:18.025Z,100125.00
2022-10-06T09:27:54.390Z,100127.00
2022-10-06T09:30:24.096Z,100120.00
2022-10-06T09:33:00.150Z,100126.00
2022-10-06T09:35:33.370Z,100123.00
2022-10-06T09:38:08.100Z,100118.00
2022-10-06T09:40:42.128Z,100104.00
2022-10-06T09:43:25.896Z,100110.00
2022-10-06T09:45:55.406Z,100098.00
2022-10-06T09:48:26.744Z,100100.00
2022-10-06T09:51:15.893Z,100096.00
2022-10-06T09:53:45.999Z,100105.00
2022-10-06T09:56:19.891Z,100099.00
2022-10-06T09:58:57.635Z,100102.00
2022-10-06T10:01:29.972Z,100103.00
2022-10-06T10:04:19.559Z,100098.00
2022-10-06T10:06:51.953Z,100096.00
2022-10-06T10:09:29.057Z,100094.00
2022-10-06T10:12:28.024Z,100094.00
2022-10-06T10:15:02.019Z,100083.00
2022-10-06T10:17:43.929Z,100087.00
2022-10-06T10:20:34.416Z,100088.00
2022-10-06T10:23:23.414Z,100086.00
2022-10-06T10:26:14.752Z,100077.00
2022-10-06T10:29:32.974Z,100082.00
2022-10-06T10:32:13.434Z,100077.00
2022-10-06T10:35:02.343Z,100062.00
2022-10-06T10:37:43.084Z,100076.00
2022-10-06T10:40:29.013Z,100075.00
2022-10-06T10:43:15.991Z,100062.00
2022-10-06T10:45:49.623Z,100066.00
2022-10-06T10:48:30.245Z,100050.00
2022-10-06T10:51:08.384Z,100048.00
2022-10-06T10:53:51.973Z,100047.00
2022-10-06T10:56:26.294Z,100048.00
2022-10-06T10:59:04.338Z,100041.00
2022-10-06T11:01:42.695Z,100034.00
2022-10-06T11:04:15.114Z,100032.00
2022-10-06T11:07:13.855Z,100031.00
2022-10-06T11:09:56.562Z,100021.00
2022-10-06T11:12:45.934Z,100014.00
2022-10-06T11:15:27.767Z,100005.00
2022-10-06T11:18:12.810Z,100007.00
2022-10-06T11:20:49.756Z,99988.00
2022-10-06T11:23:48.256Z,99984.00
2022-10-06T11:26:41.102Z,99985.00
2022-10-06T11:29:34.591Z,99985.00
2022-10-06T11:32:22.108Z,99981.00
2022-10-06T11:34:51.700Z,99968.00
2022-10-06T11:37:36.681Z,99966.00
2022-10-06T11:40:39.628Z,99959.00
2022-10-06T11:43:19.462Z,99961.00
2022-10-06T11:46:01.174Z,99962.00
2022-10-06T11:48:32.592Z,99954.00
2022-10-06T11:51:32.499Z,99947.00
2022-10-06T11:54:01.205Z,99948.00
2022-10-06T11:56:41.056Z,99955.00
2022-10-06T11:59:31.720Z,99959.00
2022-10-06T12:02:03.354Z,99945.00
2022-10-06T12:04:32.377Z,99949.00
2022-10-06T12:07:05.870Z,99957.00
2022-10-06T12:09:52.942Z,99955.00
2022-10-06T12:13:06.743Z,99950.00
2022-10-06T12:19:27.268Z,99946.00
2022-10-06T12:22:08.794Z,99951.00
2022-10-06T12:24:44.960Z,99946.00
2022-10-06T12:27:50.431Z,99943.00
2022-10-06T12:30:25.501Z,99934.00
2022-10-06T12:32:57.480Z,99935.00
2022-10-06T12:35:33.444Z,99949.00
2022-10-06T12:38:06.210Z,99941.00
2022-10-06T12:40:56.566Z,99941.00
2022-10-06T12:43:50.864Z,99933.00
2022-10-06T12:46:46.965Z,99929.00
2022-10-06T12:49:44.302Z,99927.00
2022-10-06T12:52:39.343Z,99929.00
2022-10-06T12:55:32.314Z,99923.00
2022-10-06T12:58:01.353Z,99925.00
2022-10-06T13:00:37.903Z,99920.00
2022-10-06T13:03:09.840Z,99931.00
2022-10-06T13:05:38.677Z,99927.00
2022-10-06T13:08:23.302Z,99924.00
2022-10-06T13:10:55.931Z,99926.00
2022-10-06T13:13:27.290Z,99922.00
2022-10-06T13:16:00.604Z,99917.00
2022-10-06T13:18:30.321Z,99910.00
2022-10-06T13:21:01.477Z,99920.00
2022-10-06T13:23:35.003Z,99915.00
2022-10-06T13:26:07.881Z,99913.00
2022-10-06T13:28:51.026Z,99906.00
2022-10-06T13:31:23.637Z,99900.00
2022-10-06T13:33:58.291Z,99897.00
2022-10-06T13:36:31.021Z,99905.00
2022-10-06T13:39:01.653Z,99899.00
2022-10-06T13:41:33.560Z,99888.00
2022-10-06T13:44:17.556Z,99893.00
2022-10-06T13:46:50.980Z,99890.00
2022-10-06T13:49:28.682Z,99891.00
2022-10-06T13:52:04.488Z,99894.00
2022-10-06T13:54:42.016Z,99887.00
2022-10-06T13:57:40.660Z,99898.00
2022-10-06T14:00:20.924Z,99901.00
2022-10-06T14:02:54.346Z,99897.00
2022-10-06T14:05:31.446Z,99880.00
2022-10-06T14:08:03.110Z,99880.00
2022-10-06T14:10:51.772Z,99883.00
2022-10-06T14:13:26.586Z,99862.00
2022-10-06T14:16:02.973Z,99878.00
2022-10-06T14:18:40.191Z,99878.00
2022-10-06T14:21:20.500Z,99895.00
2022-10-06T14:23:52.670Z,99907.00
2022-10-06T14:26:27.834Z,99900.00
2022-10-06T14:28:57.622Z,99900.00
2022-10-06T14:31:28.879Z,99900.00
2022-10-06T14:33:58.418Z,99890.00
2022-10-06T14:36:30.432Z,99876.00
2022-10-06T14:39:00.727Z,99889.00
2022-10-06T14:41:32.059Z,99886.00
2022-10-06T14:44:05.698Z,99896.00
2022-10-06T14:46:35.106Z,99901.00
2022-10-06T14:49:07.642Z,99903.00
2022-10-06T14:51:37.662Z,99901.00
2022-10-06T14:54:10.996Z,99908.00
2022-10-06T14:56:42.496Z,99903.00
2022-10-06T14:59:19.356Z,99912.00
2022-10-06T15:01:50.030Z,99908.00
2022-10-06T15:04:24.449Z,99908.00
2022-10-06T15:07:10.427Z,99925.00
2022-10-06T15:09:39.338Z,99937.00
2022-10-06T15:12:09.312Z,99965.00
2022-10-06T15:14:39.800Z,99953.00
2022-10-06T15:17:09.003Z,99949.00
2022-10-06T15:19:37.806Z,99965.00
2022-10-06T15:22:08.798Z,99978.00
2022-10-06T15:24:37.540Z,99968.00
2022-10-06T15:27:25.053Z,99972.00
2022-10-06T15:29:56.143Z,99984.00
2022-10-06T15:32:25.011Z,99960.00
2022-10-06T15:34:54.825Z,100000.00
2022-10-06T15:37:23.775Z,99992.00
2022-10-06T15:39:53.249Z,99993.00
2022-10-06T15:42:24.257Z,99999.00
2022-10-06T15:44:54.490Z,100002.00
2022-10-06T15:47:24.881Z,100035.00
2022-10-06T15:49:53.502Z,100000.00
2022-10-06T15:52:22.983Z,100035.00
2022-10-06T15:54:53.072Z,99984.00
2022-10-06T15:57:22.209Z,100056.00
2022-10-06T15:59:51.460Z,100025.00
2022-10-06T16:02:23.253Z,100023.00
2022-10-06T16:05:18.164Z,99930.00
2022-10-06T16:07:46.857Z,100069.00
2022-10-06T16:10:16.002Z,100075.00
2022-10-06T16:12:44.661Z,100077.00
2022-10-06T16:15:13.269Z,100093.00
2022-10-06T16:17:43.334Z,100065.00
2022-10-06T16:20:12.078Z,100092.00
2022-10-06T16:22:41.359Z,100132.00
2022-10-06T16:25:10.848Z,100117.00
2022-10-06T16:27:40.219Z,100134.00
2022-10-06T16:30:10.791Z,100147.00
2022-10-06T16:32:39.617Z,100113.00
2022-10-06T16:35:14.693Z,100121.00
2022-10-06T16:37:49.858Z,100112.00
2022-10-06T16:40:19.074Z,100097.00
2022-10-06T16:42:47.963Z,100141.00
2022-10-06T16:45:16.921Z,100123.00
2022-10-06T16:47:46.159Z,100163.00
2022-10-06T16:50:16.496Z,100161.00
2022-10-06T16:52:45.499Z,100164.00
2022-10-06T16:55:14.518Z,100132.00
2022-10-06T16:57:43.190Z,100183.00
2022-10-06T17:00:13.957Z,100186.00
2022-10-06T17:02:42.727Z,100169.00
2022-10-06T17:05:11.336Z,100180.00
2022-10-06T17:07:42.452Z,100181.00
2022-10-06T17:10:26.070Z,100200.00
2022-10-06T17:12:55.032Z,100189.00
2022-10-06T17:15:23.712Z,100212.00
2022-10-06T17:17:55.472Z,100175.00
2022-10-06T17:20:24.165Z,100212.00
2022-10-06T17:22:54.300Z,100196.00
2022-10-06T17:25:23.176Z,100209.00
2022-10-06T17:27:51.952Z,100237.00
2022-10-06T17:30:20.854Z,100236.00
2022-10-06T17:32:49.842Z,100232.00
2022-10-06T17:35:20.865Z,100242.00
2022-10-06T17:37:50.435Z,100233.00
2022-10-06T17:40:20.823Z,100236.00
2022-10-06T17:42:49.902Z,100236.00
2022-10-06T17:45:21.229Z,100238.00
2022-10-06T17:47:51.936Z,100245.00
2022-10-06T17:50:21.010Z,100244.00
2022-10-06T17:52:50.468Z,100222.00
2022-10-06T17:55:21.580Z,100267.00
2022-10-06T17:57:50.552Z,100248.00
2022-10-06T18:00:19.924Z,100242.00
2022-10-06T18:02:49.092Z,100247.00
2022-10-06T18:05:19.232Z,100269.00
2022-10-06T18:07:48.383Z,100256.00
2022-10-06T18:10:40.781Z,100276.00
2022-10-06T18:13:11.475Z,100276.00
2022-10-06T18:15:40.843Z,100279.00
2022-10-06T18:18:12.485Z,100270.00
2022-10-06T18:20:42.008Z,100301.00
2022-10-06T18:23:11.094Z,100307.00
2022-10-06T18:25:40.399Z,100290.00
2022-10-06T18:28:12.294Z,100301.00
2022-10-06T18:30:41.863Z,100306.00
2022-10-06T18:36:18.137Z,100310.00
2022-10-06T18:38:47.714Z,100305.00
2022-10-06T18:41:20.446Z,100319.00
2022-10-06T18:43:53.113Z,100330.00
2022-10-06T18:46:40.324Z,100285.00
2022-10-06T18:49:12.862Z,100319.00
2022-10-06T18:51:53.597Z,100348.00
2022-10-06T18:54:30.325Z,100337.00
2022-10-06T18:57:01.238Z,100341.00
2022-10-06T18:59:33.682Z,100333.00
2022-10-06T19:02:03.258Z,100355.00
2022-10-06T19:04:36.469Z,100343.00
2022-10-06T19:07:05.642Z,100349.00
2022-10-06T19:09:34.890Z,100335.00
2022-10-06T19:12:05.993Z,100341.00
2022-10-06T19:14:43.115Z,100334.00
2022-10-06T19:17:17.361Z,100351.00
2022-10-06T19:19:51.689Z,100301.00
2022-10-06T19:22:27.077Z,100355.00
2022-10-06T19:24:59.066Z,100350.00
2022-10-06T19:27:34.212Z,100374.00
2022-10-06T19:30:10.520Z,100374.00
2022-10-06T19:32:40.996Z,100375.00
2022-10-06T19:35:11.036Z,100359.00
2022-10-06T19:37:41.740Z,100393.00
2022-10-06T19:40:12.053Z,100371.00
2022-10-06T19:42:49.581Z,100388.00
2022-10-06T19:45:22.278Z,100386.00
2022-10-06T19:47:51.721Z,100389.00
2022-10-06T19:50:21.641Z,100368.00
2022-10-06T19:52:51.878Z,100392.00
2022-10-06T19:55:23.951Z,100394.00
2022-10-06T19:57:53.599Z,100392.00
2022-10-06T20:00:25.897Z,100391.00
2022-10-06T20:02:57.411Z,100384.00
2022-10-06T20:05:26.603Z,100395.00
2022-10-06T20:07:56.499Z,100387.00
2022-10-06T20:10:25.574Z,100401.00
2022-10-06T20:12:54.517Z,100411.00
2022-10-06T20:15:24.961Z,100404.00
2022-10-06T20:17:53.729Z,100401.00
2022-10-06T20:20:57.308Z,100398.00
2022-10-06T20:23:26.358Z,100405.00
2022-10-06T20:25:55.174Z,100406.00
2022-10-06T20:28:23.927Z,100401.00
2022-10-06T20:30:54.200Z,100403.00
2022-10-06T20:33:23.087Z,100419.00
2022-10-06T20:35:52.149Z,100424.00
2022-10-06T20:38:40.867Z,100423.00
2022-10-06T20:41:08.496Z,100425.00
2022-10-06T20:43:38.064Z,100427.00
2022-10-06T20:46:08.551Z,100436.00
2022-10-06T20:48:37.522Z,100431.00
2022-10-06T20:51:12.438Z,100430.00
2022-10-06T20:53:41.574Z,100429.00
2022-10-06T20:56:11.220Z,100423.00
2022-10-06T20:58:40.006Z,100427.00
2022-10-06T21:01:13.260Z,100426.00
2022-10-06T21:03:47.563Z,100437.00
2022-10-06T21:06:19.018Z,100435.00
2022-10-06T21:08:49.524Z,100436.00
2022-10-06T21:11:21.485Z,100439.00
2022-10-06T21:13:53.431Z,100426.00
2022-10-06T21:16:26.635Z,100444.00
2022-10-06T21:18:55.391Z,100448.00
2022-10-06T21:21:25.068Z,100462.00
2022-10-06T21:23:56.388Z,100455.00
2022-10-06T21:26:27.291Z,100454.00
2022-10-06T21:28:56.686Z,100453.00
2022-10-06T21:31:29.012Z,100454.00
2022-10-06T21:33:59.253Z,100454.00
2022-10-06T21:36:32.193Z,100458.00
2022-10-06T21:39:04.528Z,100439.00
2022-10-06T21:41:38.701Z,100462.00
2022-10-06T21:44:10.035Z,100465.00
2022-10-06T21:46:42.616Z,100453.00
2022-10-06T21:49:14.518Z,100474.00
2022-10-06T21:51:46.392Z,100460.00
2022-10-06T21:54:16.285Z,100470.00
2022-10-06T21:56:45.003Z,100472.00
2022-10-06T21:59:14.151Z,100466.00
2022-10-06T22:01:46.747Z,100460.00
2022-10-06T22:04:16.701Z,100469.00
2022-10-06T22:06:50.149Z,100473.00
2022-10-06T22:09:21.279Z,100477.00
2022-10-06T22:11:51.043Z,100476.00
2022-10-06T22:14:21.169Z,100474.00
2022-10-06T22:16:51.359Z,100482.00
2022-10-06T22:19:20.275Z,100490.00
2022-10-06T22:21:50.121Z,100482.00
2022-10-06T22:24:22.082Z,100473.00
2022-10-06T22:26:51.444Z,100465.00
2022-10-06T22:29:21.771Z,100478.00
2022-10-06T22:31:52.208Z,100484.00
2022-10-06T22:34:22.236Z,100488.00
2022-10-06T22:36:50.920Z,100489.00
2022-10-06T22:39:19.762Z,100491.00
2022-10-06T22:41:48.451Z,100488.00
2022-10-06T22:44:17.112Z,100496.00
2022-10-06T22:46:45.816Z,100476.00
2022-10-06T22:49:15.918Z,100494.00
2022-10-06T22:51:44.709Z,100482.00
2022-10-06T22:54:19.797Z,100493.00
2022-10-06T22:56:48.319Z,100496.00
2022-10-06T22:59:16.927Z,100483.00
2022-10-06T23:01:45.601Z,100494.00
2022-10-06T23:04:15.927Z,100500.00
2022-10-06T23:06:44.608Z,100506.00
2022-10-06T23:09:13.387Z,100501.00
2022-10-06T23:11:42.180Z,100487.00
2022-10-06T23:14:10.817Z,100501.00
2022-10-06T23:16:39.599Z,100491.00
2022-10-06T23:19:08.346Z,100483.00
2022-10-06T23:21:40.301Z,100500.00
2022-10-06T23:24:09.320Z,100493.00
2022-10-06T23:26:37.969Z,100456.00
2022-10-06T23:29:07.506Z,100510.00
2022-10-06T23:31:36.248Z,100507.00
2022-10-06T23:34:05.074Z,100506.00
2022-10-06T23:36:33.772Z,100495.00
2022-10-06T23:39:03.892Z,100505.00
2022-10-06T23:41:32.488Z,100505.00
2022-10-06T23:44:01.413Z,100513.00
2022-10-06T23:46:30.015Z,100504.00
2022-10-06T23:48:58.824Z,100495.00
2022-10-06T23:51:27.729Z,100499.00
2022-10-06T23:53:56.572Z,100505.00
2022-10-06T23:56:26.844Z,100527.00
2022-10-06T23:58:55.551Z,100518.00
